PAIG

Details ICAO PAIG (IGG)
Name IGIUGIG
Region USA (Alaska)
Timezone America/Anchorage (UTC-9.0)
Plans Departing 3
Arriving 3
Stats Elevation 90 ft / 27 m (AMSL)
Location 59.324041° -155.901772°
Runways 1
Magnetic Variation 13.825° E
Sunrise 2017-12-14 19:15:24 UTC / 2017-12-14 10:15:24 Local
Sunset 2017-12-15 01:24:23 UTC / 2017-12-14 16:24:23 Local
Advertisement - Login to hide

Runways

ID Width Length Bearing (true) Bearing (mag) Surface Threshold Offset Overrun Length
05 75 ft / 23 m 2,990 ft / 911 m 71.94° 58.12° Gravel 0 ft / 0 m 0 ft / 0 m
23 75 ft / 23 m 2,990 ft / 911 m 251.96° 238.14° Gravel 0 ft / 0 m 0 ft / 0 m

Map

Weather


0- 5 10 15 20 25 30 35+ Temperature / ° C

Clouds and Precipitation
Forecast for 2017-12-15 12:00 UTC. Updated 44 minutes ago

Ground ~20,000 ft ~40,000 ft Winds

METAR

PAIG 150956Z AUTO 05013KT 10SM CLR 00/M01 A2950 RMK AO2 SLP000 T00001011 FZRANO $

TAF

Not found

Frequencies

Recorded 119.92 MHz ASOS
Approach 118.80 MHz ANCHORAGE CNTR
Unicom 122.90 MHz CTAF UNIC
Warning: Do not use this data for real-world aviation or navigation. No guarantee of current accuracy is given.